sensor_id;sensor_type;location;lat;lon;timestamp;P1;durP1;ratioP1;P2;durP2;ratioP2
69485;SDS011;56677;51.710;5.366;2022-07-23T00:00:54;3.17;;;1.50;;
69485;SDS011;56677;51.710;5.366;2022-07-23T00:03:19;2.63;;;1.60;;
69485;SDS011;56677;51.710;5.366;2022-07-23T00:05:44;3.25;;;1.63;;
69485;SDS011;56677;51.710;5.366;2022-07-23T00:08:10;2.92;;;1.48;;
69485;SDS011;56677;51.710;5.366;2022-07-23T00:10:35;2.23;;;1.50;;
69485;SDS011;56677;51.710;5.366;2022-07-23T00:13:00;2.95;;;1.58;;
69485;SDS011;56677;51.710;5.366;2022-07-23T00:15:25;2.40;;;1.33;;
69485;SDS011;56677;51.710;5.366;2022-07-23T00:17:50;2.72;;;1.38;;
69485;SDS011;56677;51.710;5.366;2022-07-23T00:20:15;2.97;;;1.65;;
69485;SDS011;56677;51.710;5.366;2022-07-23T00:22:47;2.30;;;1.30;;
69485;SDS011;56677;51.710;5.366;2022-07-23T00:25:12;2.83;;;1.30;;
69485;SDS011;56677;51.710;5.366;2022-07-23T00:27:37;2.50;;;1.40;;
69485;SDS011;56677;51.710;5.366;2022-07-23T00:30:02;2.58;;;1.40;;
69485;SDS011;56677;51.710;5.366;2022-07-23T00:32:28;2.43;;;1.33;;
69485;SDS011;56677;51.710;5.366;2022-07-23T00:34:53;2.90;;;1.33;;
69485;SDS011;56677;51.710;5.366;2022-07-23T00:37:18;2.88;;;1.48;;
69485;SDS011;56677;51.710;5.366;2022-07-23T00:39:43;2.78;;;1.60;;
69485;SDS011;56677;51.710;5.366;2022-07-23T00:42:08;2.83;;;1.50;;
69485;SDS011;56677;51.710;5.366;2022-07-23T00:44:33;2.90;;;1.45;;
69485;SDS011;56677;51.710;5.366;2022-07-23T00:46:58;2.80;;;1.50;;
69485;SDS011;56677;51.710;5.366;2022-07-23T00:49:24;2.40;;;1.53;;
69485;SDS011;56677;51.710;5.366;2022-07-23T00:51:50;2.45;;;1.42;;
69485;SDS011;56677;51.710;5.366;2022-07-23T00:54:15;2.30;;;1.40;;
69485;SDS011;56677;51.710;5.366;2022-07-23T00:56:41;2.67;;;1.20;;
69485;SDS011;56677;51.710;5.366;2022-07-23T00:59:07;3.83;;;1.63;;
69485;SDS011;56677;51.710;5.366;2022-07-23T01:01:33;3.20;;;1.60;;
69485;SDS011;56677;51.710;5.366;2022-07-23T01:03:58;2.58;;;1.40;;
69485;SDS011;56677;51.710;5.366;2022-07-23T01:06:23;2.55;;;1.30;;
69485;SDS011;56677;51.710;5.366;2022-07-23T01:08:48;1.90;;;1.30;;
69485;SDS011;56677;51.710;5.366;2022-07-23T01:11:13;2.38;;;1.48;;
69485;SDS011;56677;51.710;5.366;2022-07-23T01:13:45;2.57;;;1.47;;
69485;SDS011;56677;51.710;5.366;2022-07-23T01:16:10;2.33;;;1.40;;
69485;SDS011;56677;51.710;5.366;2022-07-23T01:18:35;3.13;;;1.55;;
69485;SDS011;56677;51.710;5.366;2022-07-23T01:21:00;3.00;;;1.40;;
69485;SDS011;56677;51.710;5.366;2022-07-23T01:23:25;2.77;;;1.53;;
69485;SDS011;56677;51.710;5.366;2022-07-23T01:25:54;3.15;;;1.70;;
69485;SDS011;56677;51.710;5.366;2022-07-23T01:28:19;2.70;;;1.60;;
69485;SDS011;56677;51.710;5.366;2022-07-23T01:30:45;3.23;;;1.70;;
69485;SDS011;56677;51.710;5.366;2022-07-23T01:33:10;2.40;;;1.40;;
69485;SDS011;56677;51.710;5.366;2022-07-23T01:35:35;2.55;;;1.40;;
69485;SDS011;56677;51.710;5.366;2022-07-23T01:38:01;1.70;;;1.20;;
69485;SDS011;56677;51.710;5.366;2022-07-23T01:40:26;2.63;;;1.23;;
69485;SDS011;56677;51.710;5.366;2022-07-23T01:42:51;1.77;;;1.20;;
69485;SDS011;56677;51.710;5.366;2022-07-23T01:45:16;2.47;;;1.60;;
69485;SDS011;56677;51.710;5.366;2022-07-23T01:47:41;2.80;;;1.70;;
69485;SDS011;56677;51.710;5.366;2022-07-23T01:50:06;2.40;;;1.20;;
69485;SDS011;56677;51.710;5.366;2022-07-23T01:52:31;3.37;;;1.43;;
69485;SDS011;56677;51.710;5.366;2022-07-23T01:54:56;3.08;;;1.67;;
69485;SDS011;56677;51.710;5.366;2022-07-23T01:57:22;2.77;;;1.33;;
69485;SDS011;56677;51.710;5.366;2022-07-23T01:59:47;2.73;;;1.27;;
69485;SDS011;56677;51.710;5.366;2022-07-23T02:02:12;2.20;;;1.60;;
69485;SDS011;56677;51.710;5.366;2022-07-23T02:04:37;2.22;;;1.30;;
69485;SDS011;56677;51.710;5.366;2022-07-23T02:07:02;2.73;;;1.33;;
69485;SDS011;56677;51.710;5.366;2022-07-23T02:09:28;2.40;;;1.80;;
69485;SDS011;56677;51.710;5.366;2022-07-23T02:11:53;3.10;;;1.60;;
69485;SDS011;56677;51.710;5.366;2022-07-23T02:14:18;4.28;;;1.60;;
69485;SDS011;56677;51.710;5.366;2022-07-23T02:16:43;2.07;;;1.40;;
69485;SDS011;56677;51.710;5.366;2022-07-23T02:19:08;2.25;;;1.20;;
69485;SDS011;56677;51.710;5.366;2022-07-23T02:21:33;2.45;;;1.70;;
69485;SDS011;56677;51.710;5.366;2022-07-23T02:23:58;3.28;;;1.27;;
69485;SDS011;56677;51.710;5.366;2022-07-23T02:26:24;2.17;;;1.38;;
69485;SDS011;56677;51.710;5.366;2022-07-23T02:28:49;2.40;;;1.52;;
69485;SDS011;56677;51.710;5.366;2022-07-23T02:31:14;2.30;;;1.20;;
69485;SDS011;56677;51.710;5.366;2022-07-23T02:33:39;2.05;;;1.23;;
69485;SDS011;56677;51.710;5.366;2022-07-23T02:36:04;2.53;;;1.60;;
69485;SDS011;56677;51.710;5.366;2022-07-23T02:38:29;2.37;;;1.60;;
69485;SDS011;56677;51.710;5.366;2022-07-23T02:40:54;2.83;;;1.50;;
69485;SDS011;56677;51.710;5.366;2022-07-23T02:43:19;2.63;;;1.58;;
69485;SDS011;56677;51.710;5.366;2022-07-23T02:45:44;2.47;;;1.50;;
69485;SDS011;56677;51.710;5.366;2022-07-23T02:48:10;2.58;;;1.60;;
69485;SDS011;56677;51.710;5.366;2022-07-23T02:50:35;2.70;;;1.50;;
69485;SDS011;56677;51.710;5.366;2022-07-23T02:53:00;2.45;;;1.40;;
69485;SDS011;56677;51.710;5.366;2022-07-23T02:55:25;1.98;;;1.17;;
69485;SDS011;56677;51.710;5.366;2022-07-23T02:57:50;1.93;;;1.20;;
69485;SDS011;56677;51.710;5.366;2022-07-23T03:00:15;2.45;;;1.55;;
69485;SDS011;56677;51.710;5.366;2022-07-23T03:02:40;2.57;;;1.40;;
69485;SDS011;56677;51.710;5.366;2022-07-23T03:05:05;2.50;;;1.10;;
69485;SDS011;56677;51.710;5.366;2022-07-23T03:07:31;2.50;;;1.20;;
69485;SDS011;56677;51.710;5.366;2022-07-23T03:09:56;2.97;;;1.30;;
69485;SDS011;56677;51.710;5.366;2022-07-23T03:12:21;2.40;;;1.35;;
69485;SDS011;56677;51.710;5.366;2022-07-23T03:14:46;2.55;;;1.42;;
69485;SDS011;56677;51.710;5.366;2022-07-23T03:17:11;2.15;;;1.23;;
69485;SDS011;56677;51.710;5.366;2022-07-23T03:19:36;2.30;;;1.38;;
69485;SDS011;56677;51.710;5.366;2022-07-23T03:22:01;2.67;;;1.53;;
69485;SDS011;56677;51.710;5.366;2022-07-23T03:24:27;2.33;;;1.37;;
69485;SDS011;56677;51.710;5.366;2022-07-23T03:26:52;2.88;;;1.45;;
69485;SDS011;56677;51.710;5.366;2022-07-23T03:29:17;2.25;;;1.25;;
69485;SDS011;56677;51.710;5.366;2022-07-23T03:31:42;2.42;;;1.20;;
69485;SDS011;56677;51.710;5.366;2022-07-23T03:34:07;3.23;;;1.47;;
69485;SDS011;56677;51.710;5.366;2022-07-23T03:36:32;2.38;;;1.48;;
69485;SDS011;56677;51.710;5.366;2022-07-23T03:38:57;2.38;;;1.45;;
69485;SDS011;56677;51.710;5.366;2022-07-23T03:41:22;2.17;;;1.60;;
69485;SDS011;56677;51.710;5.366;2022-07-23T03:43:47;1.90;;;1.17;;
69485;SDS011;56677;51.710;5.366;2022-07-23T03:46:13;2.45;;;1.50;;
69485;SDS011;56677;51.710;5.366;2022-07-23T03:48:38;3.08;;;1.70;;
69485;SDS011;56677;51.710;5.366;2022-07-23T03:51:03;2.50;;;1.42;;
69485;SDS011;56677;51.710;5.366;2022-07-23T03:53:28;3.63;;;1.40;;
69485;SDS011;56677;51.710;5.366;2022-07-23T03:55:53;2.00;;;1.40;;
69485;SDS011;56677;51.710;5.366;2022-07-23T03:58:19;2.42;;;1.38;;
69485;SDS011;56677;51.710;5.366;2022-07-23T04:00:44;2.33;;;1.38;;
69485;SDS011;56677;51.710;5.366;2022-07-23T04:03:09;2.35;;;1.58;;
69485;SDS011;56677;51.710;5.366;2022-07-23T04:05:34;2.17;;;1.38;;
69485;SDS011;56677;51.710;5.366;2022-07-23T04:07:59;1.95;;;1.33;;
69485;SDS011;56677;51.710;5.366;2022-07-23T04:10:24;2.47;;;1.60;;
69485;SDS011;56677;51.710;5.366;2022-07-23T04:12:49;2.97;;;1.48;;
69485;SDS011;56677;51.710;5.366;2022-07-23T04:15:14;2.60;;;1.50;;
69485;SDS011;56677;51.710;5.366;2022-07-23T04:17:39;2.30;;;1.40;;
69485;SDS011;56677;51.710;5.366;2022-07-23T04:20:05;2.70;;;1.13;;
69485;SDS011;56677;51.710;5.366;2022-07-23T04:22:30;2.63;;;1.40;;
69485;SDS011;56677;51.710;5.366;2022-07-23T04:24:55;2.45;;;1.48;;
69485;SDS011;56677;51.710;5.366;2022-07-23T04:27:20;2.25;;;1.42;;
69485;SDS011;56677;51.710;5.366;2022-07-23T04:29:45;2.55;;;1.20;;
69485;SDS011;56677;51.710;5.366;2022-07-23T04:32:10;2.50;;;1.60;;
69485;SDS011;56677;51.710;5.366;2022-07-23T04:34:35;2.40;;;1.30;;
69485;SDS011;56677;51.710;5.366;2022-07-23T04:37:00;2.45;;;1.35;;
69485;SDS011;56677;51.710;5.366;2022-07-23T04:39:25;2.80;;;1.47;;
69485;SDS011;56677;51.710;5.366;2022-07-23T04:41:51;2.38;;;1.33;;
69485;SDS011;56677;51.710;5.366;2022-07-23T04:44:16;2.63;;;1.70;;
69485;SDS011;56677;51.710;5.366;2022-07-23T04:46:41;3.17;;;1.60;;
69485;SDS011;56677;51.710;5.366;2022-07-23T04:49:06;2.80;;;1.70;;
69485;SDS011;56677;51.710;5.366;2022-07-23T04:51:31;1.98;;;1.27;;
69485;SDS011;56677;51.710;5.366;2022-07-23T04:53:56;2.38;;;1.30;;
69485;SDS011;56677;51.710;5.366;2022-07-23T04:56:21;3.45;;;1.80;;
69485;SDS011;56677;51.710;5.366;2022-07-23T04:58:46;3.78;;;1.58;;
69485;SDS011;56677;51.710;5.366;2022-07-23T05:01:11;3.03;;;1.30;;
69485;SDS011;56677;51.710;5.366;2022-07-23T05:03:37;1.95;;;1.23;;
69485;SDS011;56677;51.710;5.366;2022-07-23T05:06:02;2.40;;;1.40;;
69485;SDS011;56677;51.710;5.366;2022-07-23T05:08:27;2.03;;;1.52;;
69485;SDS011;56677;51.710;5.366;2022-07-23T05:10:52;2.60;;;1.60;;
69485;SDS011;56677;51.710;5.366;2022-07-23T05:13:17;3.83;;;1.60;;
69485;SDS011;56677;51.710;5.366;2022-07-23T05:15:43;2.03;;;1.48;;
69485;SDS011;56677;51.710;5.366;2022-07-23T05:18:08;2.07;;;1.10;;
69485;SDS011;56677;51.710;5.366;2022-07-23T05:20:33;2.53;;;1.35;;
69485;SDS011;56677;51.710;5.366;2022-07-23T05:22:59;2.17;;;1.43;;
69485;SDS011;56677;51.710;5.366;2022-07-23T05:25:24;2.38;;;1.60;;
69485;SDS011;56677;51.710;5.366;2022-07-23T05:27:49;1.97;;;1.40;;
69485;SDS011;56677;51.710;5.366;2022-07-23T05:30:14;2.83;;;1.52;;
69485;SDS011;56677;51.710;5.366;2022-07-23T05:32:39;2.53;;;1.30;;
69485;SDS011;56677;51.710;5.366;2022-07-23T05:35:05;2.45;;;1.30;;
69485;SDS011;56677;51.710;5.366;2022-07-23T05:37:30;2.47;;;1.53;;
69485;SDS011;56677;51.710;5.366;2022-07-23T05:39:55;2.55;;;1.25;;
69485;SDS011;56677;51.710;5.366;2022-07-23T05:42:20;3.45;;;1.73;;
69485;SDS011;56677;51.710;5.366;2022-07-23T05:44:45;2.70;;;1.57;;
69485;SDS011;56677;51.710;5.366;2022-07-23T05:47:10;3.38;;;1.50;;
69485;SDS011;56677;51.710;5.366;2022-07-23T05:49:36;3.08;;;1.20;;
69485;SDS011;56677;51.710;5.366;2022-07-23T05:52:05;2.10;;;1.60;;
69485;SDS011;56677;51.710;5.366;2022-07-23T05:54:30;2.60;;;1.25;;
69485;SDS011;56677;51.710;5.366;2022-07-23T05:56:55;5.10;;;1.70;;
69485;SDS011;56677;51.710;5.366;2022-07-23T05:59:20;2.40;;;1.30;;
69485;SDS011;56677;51.710;5.366;2022-07-23T06:01:45;4.78;;;1.42;;
69485;SDS011;56677;51.710;5.366;2022-07-23T06:04:10;2.67;;;1.42;;
69485;SDS011;56677;51.710;5.366;2022-07-23T06:06:36;2.20;;;1.35;;
69485;SDS011;56677;51.710;5.366;2022-07-23T06:09:01;2.80;;;1.70;;
69485;SDS011;56677;51.710;5.366;2022-07-23T06:11:26;4.25;;;1.60;;
69485;SDS011;56677;51.710;5.366;2022-07-23T06:13:51;3.00;;;1.75;;
69485;SDS011;56677;51.710;5.366;2022-07-23T06:16:16;3.20;;;1.67;;
69485;SDS011;56677;51.710;5.366;2022-07-23T06:18:41;2.42;;;1.30;;
69485;SDS011;56677;51.710;5.366;2022-07-23T06:21:06;2.15;;;1.38;;
69485;SDS011;56677;51.710;5.366;2022-07-23T06:23:31;2.80;;;1.83;;
69485;SDS011;56677;51.710;5.366;2022-07-23T06:25:56;3.20;;;1.40;;
69485;SDS011;56677;51.710;5.366;2022-07-23T06:28:21;4.70;;;1.20;;
69485;SDS011;56677;51.710;5.366;2022-07-23T06:30:47;3.92;;;1.98;;
69485;SDS011;56677;51.710;5.366;2022-07-23T06:33:12;3.88;;;1.50;;
69485;SDS011;56677;51.710;5.366;2022-07-23T06:35:37;4.55;;;1.85;;
69485;SDS011;56677;51.710;5.366;2022-07-23T06:38:02;8.43;;;1.63;;
69485;SDS011;56677;51.710;5.366;2022-07-23T06:40:27;4.57;;;1.17;;
69485;SDS011;56677;51.710;5.366;2022-07-23T06:42:52;3.97;;;1.73;;
69485;SDS011;56677;51.710;5.366;2022-07-23T06:45:17;3.25;;;1.35;;
69485;SDS011;56677;51.710;5.366;2022-07-23T06:47:42;2.77;;;1.17;;
69485;SDS011;56677;51.710;5.366;2022-07-23T06:50:07;5.65;;;1.58;;
69485;SDS011;56677;51.710;5.366;2022-07-23T06:52:33;5.40;;;1.77;;
69485;SDS011;56677;51.710;5.366;2022-07-23T06:54:58;4.55;;;1.50;;
69485;SDS011;56677;51.710;5.366;2022-07-23T06:57:23;2.55;;;1.58;;
69485;SDS011;56677;51.710;5.366;2022-07-23T06:59:48;4.68;;;1.65;;
69485;SDS011;56677;51.710;5.366;2022-07-23T07:02:13;2.95;;;1.50;;
69485;SDS011;56677;51.710;5.366;2022-07-23T07:04:38;4.05;;;1.80;;
69485;SDS011;56677;51.710;5.366;2022-07-23T07:07:03;4.22;;;1.33;;
69485;SDS011;56677;51.710;5.366;2022-07-23T07:09:28;4.13;;;1.45;;
69485;SDS011;56677;51.710;5.366;2022-07-23T07:11:54;3.23;;;1.30;;
69485;SDS011;56677;51.710;5.366;2022-07-23T07:14:19;3.37;;;1.60;;
69485;SDS011;56677;51.710;5.366;2022-07-23T07:16:44;2.10;;;1.30;;
69485;SDS011;56677;51.710;5.366;2022-07-23T07:19:09;2.95;;;1.60;;
69485;SDS011;56677;51.710;5.366;2022-07-23T07:21:34;3.97;;;1.33;;
69485;SDS011;56677;51.710;5.366;2022-07-23T07:23:59;3.90;;;1.20;;
69485;SDS011;56677;51.710;5.366;2022-07-23T07:26:24;2.37;;;1.37;;
69485;SDS011;56677;51.710;5.366;2022-07-23T07:28:49;3.30;;;1.42;;
69485;SDS011;56677;51.710;5.366;2022-07-23T07:31:15;2.92;;;1.30;;
69485;SDS011;56677;51.710;5.366;2022-07-23T07:33:40;3.47;;;1.35;;
69485;SDS011;56677;51.710;5.366;2022-07-23T07:36:05;24.10;;;2.83;;
69485;SDS011;56677;51.710;5.366;2022-07-23T07:38:30;6.37;;;2.23;;
69485;SDS011;56677;51.710;5.366;2022-07-23T07:40:55;4.95;;;2.20;;
69485;SDS011;56677;51.710;5.366;2022-07-23T07:43:20;9.88;;;2.08;;
69485;SDS011;56677;51.710;5.366;2022-07-23T07:45:45;5.63;;;2.10;;
69485;SDS011;56677;51.710;5.366;2022-07-23T07:48:10;5.03;;;2.58;;
69485;SDS011;56677;51.710;5.366;2022-07-23T07:50:36;7.22;;;2.22;;
69485;SDS011;56677;51.710;5.366;2022-07-23T07:53:01;6.38;;;2.25;;
69485;SDS011;56677;51.710;5.366;2022-07-23T07:55:26;4.30;;;1.92;;
69485;SDS011;56677;51.710;5.366;2022-07-23T07:57:51;7.70;;;2.40;;
69485;SDS011;56677;51.710;5.366;2022-07-23T08:00:16;4.78;;;1.92;;
69485;SDS011;56677;51.710;5.366;2022-07-23T08:05:09;4.63;;;2.20;;
69485;SDS011;56677;51.710;5.366;2022-07-23T08:07:34;5.68;;;2.13;;
69485;SDS011;56677;51.710;5.366;2022-07-23T08:10:00;5.27;;;2.30;;
69485;SDS011;56677;51.710;5.366;2022-07-23T08:12:25;5.10;;;2.08;;
69485;SDS011;56677;51.710;5.366;2022-07-23T08:14:50;5.88;;;2.25;;
69485;SDS011;56677;51.710;5.366;2022-07-23T08:17:15;6.35;;;2.33;;
69485;SDS011;56677;51.710;5.366;2022-07-23T08:19:40;8.00;;;2.40;;
69485;SDS011;56677;51.710;5.366;2022-07-23T08:22:05;5.47;;;2.17;;
69485;SDS011;56677;51.710;5.366;2022-07-23T08:24:30;3.78;;;2.20;;
69485;SDS011;56677;51.710;5.366;2022-07-23T08:26:55;7.22;;;2.30;;
69485;SDS011;56677;51.710;5.366;2022-07-23T08:29:20;4.72;;;2.60;;
69485;SDS011;56677;51.710;5.366;2022-07-23T08:31:45;4.10;;;1.98;;
69485;SDS011;56677;51.710;5.366;2022-07-23T08:34:11;7.87;;;2.37;;
69485;SDS011;56677;51.710;5.366;2022-07-23T08:36:36;5.72;;;2.45;;
69485;SDS011;56677;51.710;5.366;2022-07-23T08:39:01;8.32;;;2.58;;
69485;SDS011;56677;51.710;5.366;2022-07-23T08:41:26;6.32;;;2.53;;
69485;SDS011;56677;51.710;5.366;2022-07-23T08:43:51;5.70;;;2.33;;
69485;SDS011;56677;51.710;5.366;2022-07-23T08:46:16;5.65;;;2.50;;
69485;SDS011;56677;51.710;5.366;2022-07-23T08:48:43;4.93;;;2.30;;
69485;SDS011;56677;51.710;5.366;2022-07-23T08:51:08;5.53;;;2.17;;
69485;SDS011;56677;51.710;5.366;2022-07-23T08:53:33;6.47;;;2.55;;
69485;SDS011;56677;51.710;5.366;2022-07-23T08:56:02;8.60;;;2.37;;
69485;SDS011;56677;51.710;5.366;2022-07-23T08:58:27;7.38;;;2.40;;
69485;SDS011;56677;51.710;5.366;2022-07-23T09:00:53;5.43;;;2.20;;
69485;SDS011;56677;51.710;5.366;2022-07-23T09:03:22;5.30;;;2.33;;
69485;SDS011;56677;51.710;5.366;2022-07-23T09:05:49;5.32;;;2.42;;
69485;SDS011;56677;51.710;5.366;2022-07-23T09:08:15;6.93;;;2.50;;
69485;SDS011;56677;51.710;5.366;2022-07-23T09:10:48;6.33;;;2.30;;
69485;SDS011;56677;51.710;5.366;2022-07-23T09:13:24;4.88;;;2.30;;
69485;SDS011;56677;51.710;5.366;2022-07-23T09:15:50;3.50;;;2.00;;
69485;SDS011;56677;51.710;5.366;2022-07-23T09:18:15;5.53;;;2.10;;
69485;SDS011;56677;51.710;5.366;2022-07-23T09:20:40;5.88;;;2.35;;
69485;SDS011;56677;51.710;5.366;2022-07-23T09:23:05;5.47;;;2.25;;
69485;SDS011;56677;51.710;5.366;2022-07-23T09:25:30;6.45;;;2.55;;
69485;SDS011;56677;51.710;5.366;2022-07-23T09:27:56;4.47;;;2.30;;
69485;SDS011;56677;51.710;5.366;2022-07-23T09:30:23;4.85;;;2.22;;
69485;SDS011;56677;51.710;5.366;2022-07-23T09:33:07;4.82;;;2.40;;
69485;SDS011;56677;51.710;5.366;2022-07-23T09:38:09;5.70;;;2.05;;
69485;SDS011;56677;51.710;5.366;2022-07-23T09:40:34;7.17;;;2.40;;
69485;SDS011;56677;51.710;5.366;2022-07-23T09:43:00;5.30;;;2.17;;
69485;SDS011;56677;51.710;5.366;2022-07-23T09:45:25;5.93;;;2.43;;
69485;SDS011;56677;51.710;5.366;2022-07-23T09:47:50;7.03;;;2.45;;
69485;SDS011;56677;51.710;5.366;2022-07-23T09:50:15;5.53;;;2.53;;
69485;SDS011;56677;51.710;5.366;2022-07-23T09:52:45;4.60;;;2.00;;
69485;SDS011;56677;51.710;5.366;2022-07-23T09:55:10;4.20;;;1.90;;
69485;SDS011;56677;51.710;5.366;2022-07-23T09:57:36;6.07;;;2.22;;
69485;SDS011;56677;51.710;5.366;2022-07-23T10:00:03;3.97;;;2.20;;
69485;SDS011;56677;51.710;5.366;2022-07-23T10:02:28;4.32;;;1.73;;
69485;SDS011;56677;51.710;5.366;2022-07-23T10:04:56;4.60;;;2.15;;
69485;SDS011;56677;51.710;5.366;2022-07-23T10:07:22;4.50;;;2.10;;
69485;SDS011;56677;51.710;5.366;2022-07-23T10:09:47;3.97;;;2.03;;
69485;SDS011;56677;51.710;5.366;2022-07-23T10:12:13;4.65;;;2.00;;
69485;SDS011;56677;51.710;5.366;2022-07-23T10:14:39;6.17;;;2.10;;
69485;SDS011;56677;51.710;5.366;2022-07-23T10:17:04;4.10;;;1.97;;
69485;SDS011;56677;51.710;5.366;2022-07-23T10:19:29;4.70;;;2.10;;
69485;SDS011;56677;51.710;5.366;2022-07-23T10:22:01;6.93;;;1.83;;
69485;SDS011;56677;51.710;5.366;2022-07-23T10:27:16;3.93;;;1.50;;
69485;SDS011;56677;51.710;5.366;2022-07-23T10:40:14;4.30;;;1.60;;
69485;SDS011;56677;51.710;5.366;2022-07-23T10:42:40;4.65;;;1.88;;
69485;SDS011;56677;51.710;5.366;2022-07-23T10:45:24;4.55;;;1.63;;
69485;SDS011;56677;51.710;5.366;2022-07-23T10:47:49;4.47;;;1.80;;
69485;SDS011;56677;51.710;5.366;2022-07-23T10:53:02;5.05;;;2.00;;
69485;SDS011;56677;51.710;5.366;2022-07-23T10:57:53;3.95;;;1.90;;
69485;SDS011;56677;51.710;5.366;2022-07-23T11:00:28;4.63;;;2.00;;
69485;SDS011;56677;51.710;5.366;2022-07-23T11:02:55;3.88;;;1.70;;
69485;SDS011;56677;51.710;5.366;2022-07-23T11:05:22;5.07;;;2.30;;
69485;SDS011;56677;51.710;5.366;2022-07-23T11:10:34;4.10;;;1.80;;
69485;SDS011;56677;51.710;5.366;2022-07-23T11:29:23;3.45;;;1.73;;
69485;SDS011;56677;51.710;5.366;2022-07-23T11:31:52;4.20;;;1.87;;
69485;SDS011;56677;51.710;5.366;2022-07-23T11:37:02;5.80;;;2.20;;
69485;SDS011;56677;51.710;5.366;2022-07-23T11:39:28;3.88;;;1.65;;
69485;SDS011;56677;51.710;5.366;2022-07-23T11:41:54;3.70;;;1.70;;
69485;SDS011;56677;51.710;5.366;2022-07-23T11:44:30;4.27;;;1.70;;
69485;SDS011;56677;51.710;5.366;2022-07-23T11:47:02;3.38;;;1.90;;
69485;SDS011;56677;51.710;5.366;2022-07-23T11:49:29;3.63;;;1.80;;
69485;SDS011;56677;51.710;5.366;2022-07-23T11:54:29;2.90;;;1.50;;
69485;SDS011;56677;51.710;5.366;2022-07-23T11:56:54;3.67;;;1.60;;
69485;SDS011;56677;51.710;5.366;2022-07-23T11:59:19;4.28;;;1.90;;
69485;SDS011;56677;51.710;5.366;2022-07-23T12:01:58;4.40;;;2.00;;
69485;SDS011;56677;51.710;5.366;2022-07-23T12:04:24;3.77;;;1.73;;
69485;SDS011;56677;51.710;5.366;2022-07-23T12:06:49;4.63;;;2.00;;
69485;SDS011;56677;51.710;5.366;2022-07-23T12:09:14;5.43;;;2.10;;
69485;SDS011;56677;51.710;5.366;2022-07-23T12:11:39;4.00;;;2.33;;
69485;SDS011;56677;51.710;5.366;2022-07-23T12:14:20;5.63;;;2.25;;
69485;SDS011;56677;51.710;5.366;2022-07-23T12:16:45;5.73;;;2.13;;
69485;SDS011;56677;51.710;5.366;2022-07-23T12:19:10;5.10;;;2.00;;
69485;SDS011;56677;51.710;5.366;2022-07-23T12:21:36;4.37;;;1.70;;
69485;SDS011;56677;51.710;5.366;2022-07-23T12:24:07;4.47;;;1.95;;
69485;SDS011;56677;51.710;5.366;2022-07-23T12:26:32;4.93;;;2.10;;
69485;SDS011;56677;51.710;5.366;2022-07-23T12:28:57;5.95;;;2.22;;
69485;SDS011;56677;51.710;5.366;2022-07-23T12:31:26;4.72;;;1.83;;
69485;SDS011;56677;51.710;5.366;2022-07-23T12:33:51;4.07;;;2.00;;
69485;SDS011;56677;51.710;5.366;2022-07-23T12:36:16;3.90;;;1.88;;
69485;SDS011;56677;51.710;5.366;2022-07-23T12:38:42;3.83;;;1.67;;
69485;SDS011;56677;51.710;5.366;2022-07-23T12:41:08;3.70;;;1.83;;
69485;SDS011;56677;51.710;5.366;2022-07-23T12:43:35;5.22;;;2.05;;
69485;SDS011;56677;51.710;5.366;2022-07-23T12:46:08;3.65;;;1.80;;
69485;SDS011;56677;51.710;5.366;2022-07-23T12:48:34;3.57;;;2.00;;
69485;SDS011;56677;51.710;5.366;2022-07-23T12:51:06;3.97;;;1.92;;
69485;SDS011;56677;51.710;5.366;2022-07-23T12:53:33;4.50;;;2.00;;
69485;SDS011;56677;51.710;5.366;2022-07-23T12:56:05;5.05;;;2.03;;
69485;SDS011;56677;51.710;5.366;2022-07-23T13:01:05;7.30;;;2.47;;
69485;SDS011;56677;51.710;5.366;2022-07-23T13:03:34;3.70;;;1.90;;
69485;SDS011;56677;51.710;5.366;2022-07-23T13:06:00;4.53;;;2.20;;
69485;SDS011;56677;51.710;5.366;2022-07-23T13:08:27;5.20;;;1.77;;
69485;SDS011;56677;51.710;5.366;2022-07-23T13:10:52;4.77;;;2.00;;
69485;SDS011;56677;51.710;5.366;2022-07-23T13:13:21;4.37;;;2.10;;
69485;SDS011;56677;51.710;5.366;2022-07-23T13:15:47;3.25;;;1.63;;
69485;SDS011;56677;51.710;5.366;2022-07-23T13:18:12;3.93;;;2.00;;
69485;SDS011;56677;51.710;5.366;2022-07-23T13:20:37;4.55;;;2.00;;
69485;SDS011;56677;51.710;5.366;2022-07-23T13:23:02;6.20;;;2.33;;
69485;SDS011;56677;51.710;5.366;2022-07-23T13:25:27;3.28;;;1.90;;
69485;SDS011;56677;51.710;5.366;2022-07-23T13:27:52;5.25;;;2.30;;
69485;SDS011;56677;51.710;5.366;2022-07-23T13:30:18;4.82;;;2.28;;
69485;SDS011;56677;51.710;5.366;2022-07-23T13:32:43;3.90;;;2.00;;
69485;SDS011;56677;51.710;5.366;2022-07-23T13:35:08;4.60;;;2.15;;
69485;SDS011;56677;51.710;5.366;2022-07-23T13:37:33;5.87;;;2.30;;
69485;SDS011;56677;51.710;5.366;2022-07-23T13:39:58;4.20;;;2.03;;
69485;SDS011;56677;51.710;5.366;2022-07-23T13:42:23;4.85;;;2.13;;
69485;SDS011;56677;51.710;5.366;2022-07-23T13:44:48;4.13;;;1.80;;
69485;SDS011;56677;51.710;5.366;2022-07-23T13:47:13;3.60;;;1.92;;
69485;SDS011;56677;51.710;5.366;2022-07-23T13:49:39;3.60;;;1.80;;
69485;SDS011;56677;51.710;5.366;2022-07-23T13:52:04;4.95;;;2.17;;
69485;SDS011;56677;51.710;5.366;2022-07-23T13:54:29;3.57;;;2.07;;
69485;SDS011;56677;51.710;5.366;2022-07-23T13:56:54;4.77;;;2.30;;
69485;SDS011;56677;51.710;5.366;2022-07-23T13:59:20;4.35;;;2.20;;
69485;SDS011;56677;51.710;5.366;2022-07-23T14:01:45;8.40;;;2.00;;
69485;SDS011;56677;51.710;5.366;2022-07-23T14:04:10;5.93;;;2.33;;
69485;SDS011;56677;51.710;5.366;2022-07-23T14:06:35;4.35;;;2.20;;
69485;SDS011;56677;51.710;5.366;2022-07-23T14:09:00;4.43;;;2.13;;
69485;SDS011;56677;51.710;5.366;2022-07-23T14:11:26;4.22;;;1.75;;
69485;SDS011;56677;51.710;5.366;2022-07-23T14:13:51;5.97;;;1.93;;
69485;SDS011;56677;51.710;5.366;2022-07-23T14:16:16;3.53;;;1.95;;
69485;SDS011;56677;51.710;5.366;2022-07-23T14:18:41;7.00;;;2.10;;
69485;SDS011;56677;51.710;5.366;2022-07-23T14:21:06;5.15;;;2.25;;
69485;SDS011;56677;51.710;5.366;2022-07-23T14:23:31;4.25;;;1.75;;
69485;SDS011;56677;51.710;5.366;2022-07-23T14:25:56;4.78;;;1.70;;
69485;SDS011;56677;51.710;5.366;2022-07-23T14:28:21;5.50;;;1.90;;
69485;SDS011;56677;51.710;5.366;2022-07-23T14:30:47;6.85;;;1.58;;
69485;SDS011;56677;51.710;5.366;2022-07-23T14:33:12;6.40;;;2.05;;
69485;SDS011;56677;51.710;5.366;2022-07-23T14:35:38;4.88;;;1.88;;
69485;SDS011;56677;51.710;5.366;2022-07-23T14:38:03;4.45;;;1.70;;
69485;SDS011;56677;51.710;5.366;2022-07-23T14:40:28;4.77;;;1.70;;
69485;SDS011;56677;51.710;5.366;2022-07-23T14:42:53;3.65;;;1.90;;
69485;SDS011;56677;51.710;5.366;2022-07-23T14:45:19;5.03;;;1.92;;
69485;SDS011;56677;51.710;5.366;2022-07-23T14:47:44;4.17;;;2.10;;
69485;SDS011;56677;51.710;5.366;2022-07-23T14:50:09;3.85;;;1.77;;
69485;SDS011;56677;51.710;5.366;2022-07-23T14:52:34;3.33;;;1.80;;
69485;SDS011;56677;51.710;5.366;2022-07-23T14:54:59;2.95;;;1.60;;
69485;SDS011;56677;51.710;5.366;2022-07-23T14:57:24;3.60;;;2.03;;
69485;SDS011;56677;51.710;5.366;2022-07-23T14:59:49;3.60;;;1.92;;
69485;SDS011;56677;51.710;5.366;2022-07-23T15:02:14;5.30;;;2.03;;
69485;SDS011;56677;51.710;5.366;2022-07-23T15:04:39;3.38;;;1.80;;
69485;SDS011;56677;51.710;5.366;2022-07-23T15:07:04;3.73;;;1.90;;
69485;SDS011;56677;51.710;5.366;2022-07-23T15:09:30;3.85;;;1.90;;
69485;SDS011;56677;51.710;5.366;2022-07-23T15:11:55;3.95;;;1.70;;
69485;SDS011;56677;51.710;5.366;2022-07-23T15:14:20;3.42;;;2.00;;
69485;SDS011;56677;51.710;5.366;2022-07-23T15:16:45;6.35;;;2.00;;
69485;SDS011;56677;51.710;5.366;2022-07-23T15:19:10;4.65;;;1.65;;
69485;SDS011;56677;51.710;5.366;2022-07-23T15:21:35;4.40;;;2.20;;
69485;SDS011;56677;51.710;5.366;2022-07-23T15:24:00;4.72;;;1.85;;
69485;SDS011;56677;51.710;5.366;2022-07-23T15:26:26;4.10;;;1.63;;
69485;SDS011;56677;51.710;5.366;2022-07-23T15:28:51;4.40;;;1.87;;